Nearby METAR Reports

 

KBML - Berlin, NH
Updated: Mon, 20-Aug-2018 5:52am EDT
Fog, Overcast
Fog, Overcast
 Wind from calm
Wind: Calm
Temperature: 50°F , 10°C
Dew Point: 50°F , 10°C
Humidity: 100%
Barometer: 30.24 inHg , 1024 hPa
Summary: Fog
Clouds: Overcast
Visibility: 1/4 mile , 0.4 km
Cloud details: Overcast 200 ft
2018/08/20 09:52 KBML 200952Z AUTO 00000KT 1/4SM FG VV002 10/10 A3024 RMK AO2 SLP240 T01000100
KCON - Concord, NH
Updated: Mon, 20-Aug-2018 5:51am EDT
Overcast
Overcast
 Wind from NW
Wind: NW 7 mph , 11 km/h
Temperature: 61°F , 16°C
Dew Point: 59°F , 15°C
Humidity: 94%
Barometer: 30.18 inHg , 1022 hPa
Clouds: Overcast
Visibility: 10 miles , 16 km
Cloud details: Few Clouds 3800 ft
Overcast 5500 ft
2018/08/20 09:51 KCON 200951Z AUTO 32006KT 10SM FEW038 OVC055 16/15 A3018 RMK AO2 SLP220 T01610150
KAFN - Lebanon, NH
Updated: Mon, 20-Aug-2018 5:52am EDT
Overcast
Overcast
 Wind from varies
Wind: varies 3 mph , 6 km/h
Temperature: 61°F , 16°C
Dew Point: 61°F , 16°C
Humidity: 100%
Barometer: 30.20 inHg , 1022.7 hPa
Clouds: Overcast
Visibility: 7 miles , 11 km
Cloud details: Overcast 700 ft
2018/08/20 09:52 KAFN 200952Z AUTO VRB03KT 7SM OVC007 16/16 A3020 RMK AO2 RAB29E42 SLP230 P0000 T01610156
 
KMHT - Manchester, NH
Updated: Mon, 20-Aug-2018 5:53am EDT
Overcast
Overcast
 Wind from NNW
Wind: NNW 9 mph , 15 km/h
Temperature: 64°F , 18°C
Dew Point: 61°F , 16°C
Humidity: 88%
Barometer: 30.15 inHg , 1021 hPa
Clouds: Overcast
Visibility: 10 miles , 16 km
Cloud details: Few Clouds 1200 ft
Mostly cloudy 4000 ft
Overcast 5500 ft
2018/08/20 09:53 KMHT 200953Z 34008KT 10SM FEW012 BKN040 OVC055 18/16 A3015 RMK AO2 SLP220 T01830156 $
KMWN - Mount Washington
Updated: Mon, 20-Aug-2018 5:52am EDT
Few Clouds
Few Clouds
 Wind from N
Wind: N 17 mph , 28 km/h
Temperature: 45°F , 7°C
Wind Chill: 38°F , 3°C
Dew Point: 36°F , 2°C
Humidity: 71%
Clouds: Few Clouds
Visibility: 50 miles , 80 km
Cloud details: Few Clouds 1000 ft
Few Clouds 12000 ft
Few Clouds 15000 ft
Few Clouds 18000 ft
Few Clouds 20000 ft
2018/08/20 09:52 KMWN 200952Z 01015KT 50SM FEW010 FEW120 FEW150 FEW180 FEW200 07/02 RMK VIRGA DSNT N-SE PTCHY VLY FG ALQDS
K25B - Portsmouth Harbor
Updated: Wed, 31-Dec-1969 7:00pm EST
NOT Current
unable to load K25B data RC=404 Not Found
unable to load K25B data RC=404 Not Found
 
 
KDDH - Bennington, VT
Updated: Mon, 20-Aug-2018 5:54am EDT
Clear
Clear
 Wind from calm
Wind: Calm
Temperature: 55°F , 13°C
Dew Point: 54°F , 12°C
Humidity: 94%
Barometer: 30.18 inHg , 1022 hPa
Clouds: Clear
Visibility: 9 miles , 14 km
2018/08/20 09:54 KDDH 200954Z AUTO 00000KT 9SM CLR 13/12 A3018 RMK AO2 SLP217 T01280117
K9B2 - Newport, VT
Updated: Wed, 31-Dec-1969 7:00pm EST
NOT Current
unable to load K9B2 data RC=404 Not Found
unable to load K9B2 data RC=404 Not Found
 
K1V4 - St Johnsbury, VT
Updated: Mon, 20-Aug-2018 5:54am EDT

 
Temperature: 54°F , 12°C
Dew Point: 54°F , 12°C
Humidity: 100%
Barometer: 30.21 inHg , 1023 hPa
2018/08/20 09:54 K1V4 200954Z AUTO 12/12 A3021 RMK AO1 SLP221 T01220122
 
KBGR - Bangor, ME
Updated: Mon, 20-Aug-2018 5:53am EDT
Mostly cloudy
Mostly cloudy
 Wind from N
Wind: N 6 mph , 9 km/h
Temperature: 57°F , 14°C
Dew Point: 57°F , 14°C
Humidity: 100%
Barometer: 30.21 inHg , 1023 hPa
Clouds: Mostly cloudy
Visibility: 7 miles , 11 km
Cloud details: Partly cloudy 5000 ft
Mostly cloudy 15000 ft
2018/08/20 09:53 KBGR 200953Z 35005KT 7SM SCT050 BKN150 14/14 A3021 RMK AO2 SLP226 T01440139
KBHB - Bar Harbor, ME
Updated: Mon, 20-Aug-2018 5:56am EDT
Clear
Clear
 Wind from N
Wind: N 5 mph , 7 km/h
Temperature: 57°F , 14°C
Dew Point: 55°F , 13°C
Humidity: 94%
Barometer: 30.19 inHg , 1022.4 hPa
Clouds: Clear
Visibility: 10 miles , 16 km
2018/08/20 09:56 KBHB 200956Z AUTO 36004KT 10SM CLR 14/13 A3019 RMK AO2 SLP228 T01390133 $
74389 - Gray, ME
Updated: Wed, 31-Dec-1969 7:00pm EST
NOT Current
74389 not loaded
74389 not loaded
 
 
KGNR - Greenville,ME
Updated: Mon, 20-Aug-2018 5:56am EDT

 Wind from calm
Wind: Calm
Temperature: 55°F , 13°C
Dew Point: 54°F , 12°C
Humidity: 94%
Barometer: 30.21 inHg , 1023 hPa
2018/08/20 09:56 KGNR 200956Z AUTO 00000KT 13/12 A3021 RMK AO1 SLP231 T01280117
KOLD - Old Town, ME
Updated: Wed, 31-Dec-1969 7:00pm EST
NOT Current
unable to load KOLD data RC=404 Not Found
unable to load KOLD data RC=404 Not Found
 
KRUM - Rumford, ME
Updated: Wed, 31-Dec-1969 7:00pm EST
NOT Current
unable to load KRUM data RC=404 Not Found
unable to load KRUM data RC=404 Not Found
 










Contact Us

© 2018, johnsnhweather | Weather-Display (10.37S-(b75)) | Valid XHTML 1.0 | Valid CSS

This website is neither affiliated with nor endorsed by the National Weather Service, the town of Pittsburg or any other government agency.
The weather data contained herein is offered without any warranties expressed or implied, and is meant to supplement NOAA weather forecasts and information. Never base important decisions that could result in harm to people or property on this weather information.